createdAt,value
2023-01-21T00:01:09.223Z,101908.13
2023-01-21T00:03:36.985Z,101910.16
2023-01-21T00:06:05.364Z,101906.00
2023-01-21T00:08:33.364Z,101907.81
2023-01-21T00:11:06.005Z,101921.28
2023-01-21T00:13:36.388Z,101918.81
2023-01-21T00:16:04.258Z,101926.91
2023-01-21T00:18:31.891Z,101925.31
2023-01-21T00:20:59.533Z,101923.63
2023-01-21T00:23:28.203Z,101930.66
2023-01-21T00:25:58.634Z,101939.53
2023-01-21T00:28:28.852Z,101929.69
2023-01-21T00:30:59.307Z,101942.09
2023-01-21T00:33:27.088Z,101942.38
2023-01-21T00:35:59.674Z,101935.78
2023-01-21T00:38:27.254Z,101942.19
2023-01-21T00:41:00.365Z,101958.41
2023-01-21T00:43:28.405Z,101954.03
2023-01-21T00:45:56.034Z,101956.25
2023-01-21T00:48:25.726Z,101956.47
2023-01-21T00:50:55.766Z,101973.56
2023-01-21T00:53:24.087Z,101971.41
2023-01-21T00:55:51.668Z,101975.75
2023-01-21T00:58:19.446Z,101978.34
2023-01-21T01:00:47.088Z,101981.19
2023-01-21T01:03:14.679Z,101982.06
2023-01-21T01:05:43.576Z,101982.63
2023-01-21T01:08:11.140Z,101986.13
2023-01-21T01:10:38.683Z,101993.56
2023-01-21T01:13:06.311Z,101995.28
2023-01-21T01:15:33.911Z,101997.97
2023-01-21T01:18:01.449Z,101998.25
2023-01-21T01:20:29.335Z,102006.16
2023-01-21T01:22:58.254Z,102014.34
2023-01-21T01:25:25.965Z,102017.63
2023-01-21T01:27:53.474Z,102025.28
2023-01-21T01:30:21.283Z,102013.69
2023-01-21T01:32:48.875Z,102017.75
2023-01-21T01:35:16.699Z,102028.41
2023-01-21T01:37:44.293Z,102034.56
2023-01-21T01:40:14.713Z,102037.34
2023-01-21T01:42:42.412Z,102042.78
2023-01-21T01:45:20.104Z,102049.06
2023-01-21T01:47:58.042Z,102051.94
2023-01-21T01:50:29.786Z,102059.38
2023-01-21T01:53:00.110Z,102059.16
2023-01-21T01:55:29.993Z,102065.75
2023-01-21T01:57:58.703Z,102074.81
2023-01-21T02:00:27.125Z,102077.69
2023-01-21T02:03:13.097Z,102084.91
2023-01-21T02:05:42.963Z,102087.00
2023-01-21T02:08:11.815Z,102089.66
2023-01-21T02:10:41.107Z,102090.44
2023-01-21T02:13:08.859Z,102085.84
2023-01-21T02:15:41.967Z,102092.34
2023-01-21T02:18:18.723Z,102098.22
2023-01-21T02:21:12.581Z,102099.09
2023-01-21T02:24:00.432Z,102103.19
2023-01-21T02:27:06.496Z,102103.94
2023-01-21T02:30:01.201Z,102109.34
2023-01-21T02:33:04.879Z,102114.41
2023-01-21T02:35:42.155Z,102117.81
2023-01-21T02:38:20.282Z,102118.28
2023-01-21T02:40:57.740Z,102112.94
2023-01-21T02:43:33.376Z,102113.25
2023-01-21T02:46:07.602Z,102129.34
2023-01-21T02:48:40.400Z,102123.16
2023-01-21T02:51:09.399Z,102126.97
2023-01-21T02:53:38.215Z,102127.75
2023-01-21T02:56:09.927Z,102122.66
2023-01-21T02:58:43.329Z,102126.66
2023-01-21T03:01:21.769Z,102126.44
2023-01-21T03:04:23.504Z,102132.72
2023-01-21T03:07:02.143Z,102133.41
2023-01-21T03:09:31.417Z,102142.16
2023-01-21T03:12:22.598Z,102139.69
2023-01-21T03:15:14.777Z,102149.19
2023-01-21T03:17:47.583Z,102144.84
2023-01-21T03:20:21.239Z,102144.91
2023-01-21T03:22:54.783Z,102146.41
2023-01-21T03:25:23.508Z,102145.28
2023-01-21T03:27:53.181Z,102145.19
2023-01-21T03:30:23.501Z,102147.50
2023-01-21T03:32:53.548Z,102142.69
2023-01-21T03:35:24.797Z,102149.56
2023-01-21T03:37:59.544Z,102144.31
2023-01-21T03:40:29.695Z,102151.25
2023-01-21T03:42:57.596Z,102158.41
2023-01-21T03:45:35.837Z,102140.59
2023-01-21T03:48:13.390Z,102146.59
2023-01-21T03:50:45.126Z,102154.09
2023-01-21T03:53:14.586Z,102147.38
2023-01-21T03:55:42.193Z,102149.88
2023-01-21T03:58:09.894Z,102150.50
2023-01-21T04:00:38.333Z,102152.34
2023-01-21T04:03:06.263Z,102149.44
2023-01-21T04:05:35.252Z,102142.59
2023-01-21T04:08:03.282Z,102145.16
2023-01-21T04:10:35.021Z,102138.03
2023-01-21T04:13:02.733Z,102141.41
2023-01-21T04:15:30.348Z,102150.94
2023-01-21T04:17:59.093Z,102148.56
2023-01-21T04:20:26.801Z,102159.66
2023-01-21T04:22:54.388Z,102154.66
2023-01-21T04:25:22.015Z,102154.00
2023-01-21T04:27:50.964Z,102151.44
2023-01-21T04:30:20.117Z,102154.09
2023-01-21T04:32:47.936Z,102156.00
2023-01-21T04:35:15.647Z,102153.78
2023-01-21T04:37:43.173Z,102155.22
2023-01-21T04:40:12.970Z,102156.72
2023-01-21T04:42:41.285Z,102163.00
2023-01-21T04:45:11.335Z,102161.50
2023-01-21T04:47:41.892Z,102160.53
2023-01-21T04:50:11.504Z,102165.47
2023-01-21T04:52:39.897Z,102167.84
2023-01-21T04:55:08.792Z,102176.28
2023-01-21T04:57:36.391Z,102175.75
2023-01-21T05:00:06.458Z,102172.78
2023-01-21T05:02:36.105Z,102176.28
2023-01-21T05:05:03.945Z,102186.41
2023-01-21T05:07:31.519Z,102183.09
2023-01-21T05:09:59.136Z,102186.41
2023-01-21T05:12:27.340Z,102197.94
2023-01-21T05:14:55.343Z,102192.41
2023-01-21T05:17:22.914Z,102197.84
2023-01-21T05:19:51.943Z,102207.19
2023-01-21T05:22:19.830Z,102207.31
2023-01-21T05:24:47.431Z,102199.00
2023-01-21T05:27:15.842Z,102205.41
2023-01-21T05:29:44.083Z,102216.56
2023-01-21T05:32:11.645Z,102205.81
2023-01-21T05:34:39.234Z,102198.25
2023-01-21T05:37:08.167Z,102202.44
2023-01-21T05:39:35.753Z,102201.06
2023-01-21T05:42:03.332Z,102206.31
2023-01-21T05:44:30.909Z,102207.16
2023-01-21T05:46:58.496Z,102211.34
2023-01-21T05:49:26.053Z,102215.63
2023-01-21T05:51:53.609Z,102208.66
2023-01-21T05:54:22.505Z,102214.00
2023-01-21T05:56:50.071Z,102220.50
2023-01-21T05:59:17.659Z,102219.56
2023-01-21T06:01:45.243Z,102225.63
2023-01-21T06:04:14.975Z,102230.41
2023-01-21T06:06:42.569Z,102230.50
2023-01-21T06:09:11.042Z,102234.34
2023-01-21T06:11:39.947Z,102229.66
2023-01-21T06:14:07.498Z,102235.75
2023-01-21T06:16:35.101Z,102245.47
2023-01-21T06:19:04.821Z,102253.91
2023-01-21T06:21:32.469Z,102249.41
2023-01-21T06:24:00.614Z,102254.75
2023-01-21T06:26:28.230Z,102261.97
2023-01-21T06:28:58.314Z,102259.41
2023-01-21T06:31:25.996Z,102265.69
2023-01-21T06:33:54.854Z,102272.75
2023-01-21T06:36:23.451Z,102281.91
2023-01-21T06:38:51.273Z,102278.41
2023-01-21T06:41:19.886Z,102286.97
2023-01-21T06:43:47.418Z,102290.94
2023-01-21T06:46:16.943Z,102288.94
2023-01-21T06:48:44.465Z,102300.38
2023-01-21T06:51:12.179Z,102303.25
2023-01-21T06:53:39.870Z,102315.53
2023-01-21T06:56:08.091Z,102317.44
2023-01-21T06:58:35.670Z,102317.75
2023-01-21T07:01:03.338Z,102328.81
2023-01-21T07:03:32.295Z,102319.94
2023-01-21T07:06:00.014Z,102327.84
2023-01-21T07:08:27.695Z,102326.22
2023-01-21T07:10:55.377Z,102331.38
2023-01-21T07:13:23.343Z,102336.53
2023-01-21T07:15:51.493Z,102333.97
2023-01-21T07:18:21.440Z,102337.38
2023-01-21T07:20:50.446Z,102337.94
2023-01-21T07:23:18.123Z,102341.28
2023-01-21T07:25:46.394Z,102345.69
2023-01-21T07:28:14.013Z,102346.31
2023-01-21T07:30:42.167Z,102355.84
2023-01-21T07:33:10.451Z,102357.88
2023-01-21T07:35:38.182Z,102364.44
2023-01-21T07:38:07.458Z,102346.53
2023-01-21T07:40:35.100Z,102348.81
2023-01-21T07:43:02.695Z,102355.00
2023-01-21T07:45:33.030Z,102358.81
2023-01-21T07:48:00.870Z,102371.13
2023-01-21T07:50:28.848Z,102361.13
2023-01-21T07:52:56.492Z,102373.69
2023-01-21T07:55:25.456Z,102355.31
2023-01-21T07:57:53.251Z,102369.41
2023-01-21T08:00:22.729Z,102378.19
2023-01-21T08:02:51.803Z,102382.16
2023-01-21T08:05:19.706Z,102383.13
2023-01-21T08:07:47.619Z,102387.72
2023-01-21T08:10:16.044Z,102386.56
2023-01-21T08:12:45.381Z,102388.84
2023-01-21T08:15:13.708Z,102394.25
2023-01-21T08:17:44.696Z,102395.81
2023-01-21T08:20:13.256Z,102390.00
2023-01-21T08:22:40.922Z,102398.47
2023-01-21T08:25:09.316Z,102397.59
2023-01-21T08:27:36.996Z,102399.53
2023-01-21T08:30:07.361Z,102406.59
2023-01-21T08:32:35.234Z,102408.13
2023-01-21T08:35:03.119Z,102417.44
2023-01-21T08:37:30.848Z,102414.56
2023-01-21T08:39:58.644Z,102424.59
2023-01-21T08:42:26.336Z,102424.69
2023-01-21T08:44:54.078Z,102423.94
2023-01-21T08:47:23.915Z,102430.03
2023-01-21T08:49:51.851Z,102436.13
2023-01-21T08:52:21.468Z,102439.00
2023-01-21T08:54:50.790Z,102439.84
2023-01-21T08:57:18.651Z,102445.19
2023-01-21T08:59:46.501Z,102446.13
2023-01-21T09:02:14.255Z,102458.41
2023-01-21T09:04:43.302Z,102455.84
2023-01-21T09:07:11.056Z,102460.13
2023-01-21T09:09:39.031Z,102460.34
2023-01-21T09:12:08.828Z,102469.19
2023-01-21T09:14:36.877Z,102471.88
2023-01-21T09:17:04.585Z,102459.19
2023-01-21T09:19:32.247Z,102461.66
2023-01-21T09:22:01.319Z,102467.59
2023-01-21T09:24:29.131Z,102468.72
2023-01-21T09:26:56.828Z,102469.31
2023-01-21T09:29:25.085Z,102462.63
2023-01-21T09:31:53.364Z,102474.28
2023-01-21T09:34:20.990Z,102462.25
2023-01-21T09:36:48.612Z,102456.53
2023-01-21T09:39:18.849Z,102455.19
2023-01-21T09:41:50.908Z,102466.06
2023-01-21T09:44:25.519Z,102464.25
2023-01-21T09:46:59.400Z,102467.00
2023-01-21T09:49:31.583Z,102465.88
2023-01-21T09:52:07.452Z,102461.50
2023-01-21T09:54:38.066Z,102470.56
2023-01-21T09:57:31.420Z,102467.69
2023-01-21T10:00:20.172Z,102476.38
2023-01-21T10:02:58.906Z,102477.69
2023-01-21T10:06:03.533Z,102479.41
2023-01-21T10:08:38.401Z,102475.59
2023-01-21T10:11:24.820Z,102478.47
2023-01-21T10:14:13.785Z,102480.66
2023-01-21T10:16:55.054Z,102478.06
2023-01-21T10:19:29.119Z,102484.28
2023-01-21T10:22:03.447Z,102475.97
2023-01-21T10:24:38.672Z,102476.84
2023-01-21T10:27:15.852Z,102478.84
2023-01-21T10:29:44.523Z,102475.00
2023-01-21T10:32:18.174Z,102481.13
2023-01-21T10:34:50.960Z,102481.13
2023-01-21T10:37:26.862Z,102475.47
2023-01-21T10:40:02.910Z,102467.47
2023-01-21T10:42:51.597Z,102455.44
2023-01-21T10:45:33.070Z,102471.66
2023-01-21T10:48:06.727Z,102463.53
2023-01-21T10:50:43.860Z,102460.69
2023-01-21T10:53:19.999Z,102458.88
2023-01-21T10:56:01.610Z,102455.13
2023-01-21T10:58:35.925Z,102455.81
2023-01-21T11:01:07.837Z,102455.81
2023-01-21T11:03:41.127Z,102462.56
2023-01-21T11:06:12.436Z,102455.00
2023-01-21T11:08:43.824Z,102460.66
2023-01-21T11:11:12.370Z,102459.78
2023-01-21T11:13:41.792Z,102456.06
2023-01-21T11:16:09.676Z,102459.19
2023-01-21T11:18:39.523Z,102465.47
2023-01-21T11:21:19.468Z,102469.97
2023-01-21T11:23:55.153Z,102470.94
2023-01-21T11:26:27.415Z,102472.44
2023-01-21T11:29:12.706Z,102469.16
2023-01-21T11:31:41.542Z,102471.22
2023-01-21T11:34:14.979Z,102476.34
2023-01-21T11:36:58.544Z,102474.38
2023-01-21T11:39:27.575Z,102474.94
2023-01-21T11:41:57.900Z,102470.22
2023-01-21T11:44:26.767Z,102463.69
2023-01-21T11:46:54.540Z,102474.47
2023-01-21T11:49:33.496Z,102463.69
2023-01-21T11:52:16.075Z,102475.88
2023-01-21T11:54:44.478Z,102471.38
2023-01-21T11:57:34.288Z,102467.88
2023-01-21T12:00:20.599Z,102462.41
2023-01-21T12:02:52.790Z,102459.53
2023-01-21T12:05:29.306Z,102461.28
2023-01-21T12:07:57.476Z,102462.16
2023-01-21T12:10:31.535Z,102465.41
2023-01-21T12:13:16.165Z,102456.78
2023-01-21T12:15:56.459Z,102457.41
2023-01-21T12:18:38.775Z,102450.44
2023-01-21T12:21:11.213Z,102448.16
2023-01-21T12:23:52.727Z,102451.16
2023-01-21T12:26:35.294Z,102449.72
2023-01-21T12:29:29.047Z,102441.22
2023-01-21T12:32:02.726Z,102438.53
2023-01-21T12:34:36.122Z,102436.84
2023-01-21T12:37:11.334Z,102439.81
2023-01-21T12:39:39.206Z,102434.91
2023-01-21T12:42:12.408Z,102425.72
2023-01-21T12:44:46.419Z,102429.38
2023-01-21T12:47:27.026Z,102433.00
2023-01-21T12:50:05.192Z,102430.44
2023-01-21T12:52:41.991Z,102420.94
2023-01-21T12:55:18.875Z,102411.00
2023-01-21T12:57:53.406Z,102419.25
2023-01-21T13:00:24.473Z,102412.38
2023-01-21T13:03:10.736Z,102419.16
2023-01-21T13:05:45.163Z,102419.50
2023-01-21T13:08:32.218Z,102429.03
2023-01-21T13:11:06.876Z,102418.22
2023-01-21T13:13:39.268Z,102412.53
2023-01-21T13:16:10.058Z,102422.59
2023-01-21T13:18:42.444Z,102413.91
2023-01-21T13:21:26.380Z,102420.78
2023-01-21T13:24:02.891Z,102434.47
2023-01-21T13:26:38.299Z,102428.16
2023-01-21T13:29:13.028Z,102435.44
2023-01-21T13:31:48.455Z,102427.44
2023-01-21T13:34:27.689Z,102425.59
2023-01-21T13:37:10.496Z,102423.47
2023-01-21T13:39:49.463Z,102417.13
2023-01-21T13:42:30.036Z,102421.94
2023-01-21T13:45:17.689Z,102422.91
2023-01-21T13:48:16.063Z,102425.59
2023-01-21T13:50:58.186Z,102432.47
2023-01-21T13:53:49.979Z,102428.38
2023-01-21T13:56:31.752Z,102427.19
2023-01-21T13:59:06.013Z,102437.13
2023-01-21T14:01:44.084Z,102428.56
2023-01-21T14:04:16.157Z,102429.22
2023-01-21T14:06:52.937Z,102426.88
2023-01-21T14:09:24.771Z,102426.88
2023-01-21T14:11:59.743Z,102423.44
2023-01-21T14:14:44.418Z,102421.09
2023-01-21T14:17:42.509Z,102421.28
2023-01-21T14:20:34.601Z,102424.72
2023-01-21T14:23:27.493Z,102429.97
2023-01-21T14:26:12.661Z,102427.19
2023-01-21T14:28:52.649Z,102426.97
2023-01-21T14:31:25.396Z,102421.09
2023-01-21T14:33:58.491Z,102421.94
2023-01-21T14:36:37.741Z,102427.06
2023-01-21T14:39:15.939Z,102426.97
2023-01-21T14:42:01.948Z,102424.72
2023-01-21T14:45:03.083Z,102424.19
2023-01-21T14:47:53.195Z,102428.13
2023-01-21T14:50:47.206Z,102430.69
2023-01-21T14:53:21.732Z,102432.31
2023-01-21T14:56:10.643Z,102426.72
2023-01-21T14:58:39.459Z,102429.19
2023-01-21T15:01:07.909Z,102437.41
2023-01-21T15:03:48.717Z,102425.66
2023-01-21T15:06:21.230Z,102422.53
2023-01-21T15:08:52.385Z,102420.63
2023-01-21T15:11:24.296Z,102422.44
2023-01-21T15:14:07.410Z,102425.97
2023-01-21T15:16:36.980Z,102420.63
2023-01-21T15:19:24.964Z,102421.25
2023-01-21T15:22:18.467Z,102424.16
2023-01-21T15:25:19.691Z,102432.56
2023-01-21T15:28:36.713Z,102427.09
2023-01-21T15:31:08.562Z,102429.44
2023-01-21T15:33:58.076Z,102432.13
2023-01-21T15:36:28.611Z,102424.66
2023-01-21T15:39:02.332Z,102427.31
2023-01-21T15:41:44.579Z,102419.19
2023-01-21T15:44:32.981Z,102423.31
2023-01-21T15:47:13.979Z,102418.59
2023-01-21T15:49:56.793Z,102426.22
2023-01-21T15:52:36.795Z,102419.69
2023-01-21T15:55:26.557Z,102422.03
2023-01-21T15:58:06.750Z,102419.41
2023-01-21T16:00:38.877Z,102425.31
2023-01-21T16:03:21.026Z,102429.94
2023-01-21T16:05:58.347Z,102431.69
2023-01-21T16:08:40.827Z,102437.81
2023-01-21T16:11:31.216Z,102425.94
2023-01-21T16:14:14.356Z,102424.03
2023-01-21T16:16:53.499Z,102425.94
2023-01-21T16:19:27.519Z,102428.72
2023-01-21T16:21:59.572Z,102430.84
2023-01-21T16:24:29.655Z,102441.19
2023-01-21T16:27:17.400Z,102439.53
2023-01-21T16:29:45.072Z,102446.88
2023-01-21T16:32:17.646Z,102442.50
2023-01-21T16:34:47.517Z,102434.19
2023-01-21T16:37:16.865Z,102439.53
2023-01-21T16:39:45.254Z,102437.63
2023-01-21T16:42:25.552Z,102439.03
2023-01-21T16:44:53.901Z,102430.56
2023-01-21T16:47:25.747Z,102436.97
2023-01-21T16:49:54.897Z,102438.69
2023-01-21T16:52:24.397Z,102431.63
2023-01-21T16:54:54.020Z,102431.25
2023-01-21T16:57:25.758Z,102444.31
2023-01-21T16:59:57.873Z,102439.91
2023-01-21T17:02:30.690Z,102439.28
2023-01-21T17:05:02.139Z,102437.56
2023-01-21T17:07:33.443Z,102442.50
2023-01-21T17:10:05.468Z,102437.50
2023-01-21T17:12:36.235Z,102427.00
2023-01-21T17:15:15.420Z,102438.47
2023-01-21T17:17:43.433Z,102440.09
2023-01-21T17:20:34.892Z,102432.34
2023-01-21T17:23:04.754Z,102430.56
2023-01-21T17:25:32.618Z,102429.03
2023-01-21T17:28:00.233Z,102435.69
2023-01-21T17:30:31.434Z,102434.41
2023-01-21T17:33:00.888Z,102426.22
2023-01-21T17:35:32.013Z,102429.00
2023-01-21T17:38:02.754Z,102429.28
2023-01-21T17:40:33.288Z,102426.63
2023-01-21T17:43:11.859Z,102425.09
2023-01-21T17:45:45.313Z,102433.94
2023-01-21T17:48:23.270Z,102435.44
2023-01-21T17:50:51.149Z,102436.69
2023-01-21T17:53:23.428Z,102433.94
2023-01-21T17:55:58.525Z,102434.56
2023-01-21T17:58:51.827Z,102436.41
2023-01-21T18:01:21.291Z,102428.28
2023-01-21T18:03:49.035Z,102428.16
2023-01-21T18:06:20.032Z,102435.63
2023-01-21T18:08:50.820Z,102432.88
2023-01-21T18:11:18.602Z,102435.06
2023-01-21T18:13:46.218Z,102435.06
2023-01-21T18:16:14.113Z,102434.69
2023-01-21T18:18:42.022Z,102436.28
2023-01-21T18:21:18.153Z,102433.72
2023-01-21T18:23:45.840Z,102435.06
2023-01-21T18:26:20.968Z,102433.06
2023-01-21T18:28:48.537Z,102431.44
2023-01-21T18:31:16.365Z,102431.44
2023-01-21T18:33:44.126Z,102431.34
2023-01-21T18:36:12.185Z,102427.72
2023-01-21T18:38:39.844Z,102425.34
2023-01-21T18:41:08.802Z,102431.91
2023-01-21T18:43:37.784Z,102431.63
2023-01-21T18:46:10.184Z,102430.66
2023-01-21T18:48:37.902Z,102427.31
2023-01-21T18:51:05.813Z,102425.94
2023-01-21T18:53:34.626Z,102420.53
2023-01-21T18:56:06.104Z,102422.81
2023-01-21T18:58:33.933Z,102420.56
2023-01-21T19:01:13.921Z,102419.31
2023-01-21T19:03:48.670Z,102420.59
2023-01-21T19:06:17.487Z,102426.25
2023-01-21T19:08:48.397Z,102427.00
2023-01-21T19:11:17.910Z,102421.47
2023-01-21T19:13:45.634Z,102413.97
2023-01-21T19:16:18.115Z,102418.13
2023-01-21T19:18:46.504Z,102415.69
2023-01-21T19:21:14.438Z,102422.19
2023-01-21T19:23:42.262Z,102428.94
2023-01-21T19:26:13.919Z,102420.72
2023-01-21T19:28:42.063Z,102425.88
2023-01-21T19:31:09.845Z,102407.91
2023-01-21T19:33:40.826Z,102403.81
2023-01-21T19:36:14.925Z,102399.66
2023-01-21T19:38:44.123Z,102397.94
2023-01-21T19:41:11.814Z,102392.69
2023-01-21T19:43:39.595Z,102400.28
2023-01-21T19:46:10.980Z,102403.16
2023-01-21T19:48:40.795Z,102392.88
2023-01-21T19:51:09.010Z,102391.47
2023-01-21T19:53:37.141Z,102394.81
2023-01-21T19:56:06.260Z,102401.66
2023-01-21T19:58:34.204Z,102406.91
2023-01-21T20:01:02.183Z,102398.31
2023-01-21T20:03:30.661Z,102417.97
2023-01-21T20:06:03.020Z,102419.59
2023-01-21T20:08:32.127Z,102423.53
2023-01-21T20:10:59.903Z,102427.72
2023-01-21T20:13:31.337Z,102429.22
2023-01-21T20:16:03.609Z,102435.03
2023-01-21T20:18:32.578Z,102436.47
2023-01-21T20:21:01.716Z,102432.34
2023-01-21T20:23:32.508Z,102428.84
2023-01-21T20:26:01.141Z,102437.25
2023-01-21T20:28:36.349Z,102424.53
2023-01-21T20:31:06.951Z,102417.13
2023-01-21T20:33:36.197Z,102415.03
2023-01-21T20:36:17.508Z,102410.44
2023-01-21T20:38:46.347Z,102397.16
2023-01-21T20:41:14.222Z,102389.84
2023-01-21T20:43:42.222Z,102400.16
2023-01-21T20:46:13.497Z,102384.81
2023-01-21T20:48:43.450Z,102386.63
2023-01-21T20:51:12.924Z,102398.56
2023-01-21T20:53:41.083Z,102403.41
2023-01-21T20:56:18.928Z,102408.16
2023-01-21T20:58:47.811Z,102401.44
2023-01-21T21:01:17.664Z,102407.00
2023-01-21T21:03:45.650Z,102410.97
2023-01-21T21:06:15.595Z,102419.41
2023-01-21T21:08:43.918Z,102413.13
2023-01-21T21:11:11.863Z,102414.06
2023-01-21T21:13:39.500Z,102421.31
2023-01-21T21:16:17.849Z,102418.63
2023-01-21T21:18:45.468Z,102399.09
2023-01-21T21:21:14.925Z,102397.75
2023-01-21T21:23:46.312Z,102389.84
2023-01-21T21:26:18.290Z,102396.41
2023-01-21T21:28:46.912Z,102396.31
2023-01-21T21:31:15.848Z,102392.69
2023-01-21T21:33:44.011Z,102400.59
2023-01-21T21:36:15.931Z,102408.28
2023-01-21T21:38:44.314Z,102396.97
2023-01-21T21:41:36.577Z,102410.22
2023-01-21T21:44:05.665Z,102410.38
2023-01-21T21:46:51.466Z,102411.13
2023-01-21T21:49:19.405Z,102402.03
2023-01-21T21:51:48.779Z,102394.03
2023-01-21T21:54:18.162Z,102390.72
2023-01-21T21:56:46.101Z,102391.00
2023-01-21T21:59:14.621Z,102387.75
2023-01-21T22:01:43.240Z,102387.75
2023-01-21T22:04:11.230Z,102376.09
2023-01-21T22:06:39.770Z,102369.53
2023-01-21T22:09:11.098Z,102371.50
2023-01-21T22:11:38.925Z,102361.69
2023-01-21T22:14:06.649Z,102361.13
2023-01-21T22:16:34.859Z,102355.00
2023-01-21T22:19:02.644Z,102361.00
2023-01-21T22:21:32.821Z,102361.91
2023-01-21T22:24:00.862Z,102353.66
2023-01-21T22:26:30.511Z,102352.34
2023-01-21T22:28:58.342Z,102362.63
2023-01-21T22:31:28.821Z,102365.84
2023-01-21T22:33:57.208Z,102376.53
2023-01-21T22:36:27.250Z,102388.41
2023-01-21T22:38:55.746Z,102371.91
2023-01-21T22:41:24.996Z,102383.84
2023-01-21T22:43:54.304Z,102380.94
2023-01-21T22:46:24.291Z,102390.66
2023-01-21T22:48:52.156Z,102382.75
2023-01-21T22:51:21.323Z,102373.88
2023-01-21T22:53:49.764Z,102384.16
2023-01-21T22:56:19.232Z,102382.66
2023-01-21T22:58:47.460Z,102385.50
2023-01-21T23:01:25.095Z,102373.69
2023-01-21T23:03:53.553Z,102384.25
2023-01-21T23:06:21.873Z,102381.69
2023-01-21T23:08:49.916Z,102383.31
2023-01-21T23:11:19.580Z,102379.78
2023-01-21T23:13:50.026Z,102375.81
2023-01-21T23:16:20.898Z,102373.31
2023-01-21T23:18:50.707Z,102368.94
2023-01-21T23:21:20.767Z,102379.31
2023-01-21T23:23:48.512Z,102374.63
2023-01-21T23:26:18.984Z,102372.16
2023-01-21T23:28:47.155Z,102371.09
2023-01-21T23:31:17.415Z,102371.41
2023-01-21T23:33:45.314Z,102371.69
2023-01-21T23:36:14.953Z,102371.69
2023-01-21T23:38:42.981Z,102370.19
2023-01-21T23:41:12.040Z,102371.91
2023-01-21T23:43:39.845Z,102366.66
2023-01-21T23:46:08.647Z,102364.09
2023-01-21T23:48:36.416Z,102364.03
2023-01-21T23:51:05.402Z,102367.25
2023-01-21T23:53:35.519Z,102360.19
2023-01-21T23:56:08.344Z,102367.06
2023-01-21T23:58:36.023Z,102363.22
